sensor_id;sensor_type;location;lat;lon;timestamp;P1;P2;P0
45700;PMS5003;36277;32.852;-116.998;2023-03-19T00:01:59;3.20;3.20;3.00
45700;PMS5003;36277;32.852;-116.998;2023-03-19T00:04:25;2.20;2.20;1.80
45700;PMS5003;36277;32.852;-116.998;2023-03-19T00:06:52;2.20;2.20;2.00
45700;PMS5003;36277;32.852;-116.998;2023-03-19T00:09:19;2.80;2.80;2.60
45700;PMS5003;36277;32.852;-116.998;2023-03-19T00:11:46;3.20;3.20;3.00
45700;PMS5003;36277;32.852;-116.998;2023-03-19T00:14:13;2.00;2.00;2.00
45700;PMS5003;36277;32.852;-116.998;2023-03-19T00:16:41;2.80;2.80;2.00
45700;PMS5003;36277;32.852;-116.998;2023-03-19T00:19:08;2.00;2.00;1.80
45700;PMS5003;36277;32.852;-116.998;2023-03-19T00:21:34;3.40;3.40;2.80
45700;PMS5003;36277;32.852;-116.998;2023-03-19T00:24:01;2.40;2.40;2.00
45700;PMS5003;36277;32.852;-116.998;2023-03-19T00:26:29;2.00;2.00;2.00
45700;PMS5003;36277;32.852;-116.998;2023-03-19T00:28:56;2.20;2.20;2.00
45700;PMS5003;36277;32.852;-116.998;2023-03-19T00:31:23;3.00;3.00;2.60
45700;PMS5003;36277;32.852;-116.998;2023-03-19T00:33:51;3.00;3.00;2.20
45700;PMS5003;36277;32.852;-116.998;2023-03-19T00:36:18;2.40;2.40;2.40
45700;PMS5003;36277;32.852;-116.998;2023-03-19T00:38:45;2.20;2.20;1.40
45700;PMS5003;36277;32.852;-116.998;2023-03-19T00:41:11;2.20;2.20;1.80
45700;PMS5003;36277;32.852;-116.998;2023-03-19T00:43:38;3.40;3.40;2.40
45700;PMS5003;36277;32.852;-116.998;2023-03-19T00:46:05;2.00;2.00;1.20
45700;PMS5003;36277;32.852;-116.998;2023-03-19T00:48:32;2.80;2.80;2.80
45700;PMS5003;36277;32.852;-116.998;2023-03-19T00:51:05;1.20;1.20;1.00
45700;PMS5003;36277;32.852;-116.998;2023-03-19T00:53:36;0.80;0.80;0.80
45700;PMS5003;36277;32.852;-116.998;2023-03-19T00:56:07;2.00;2.00;2.00
45700;PMS5003;36277;32.852;-116.998;2023-03-19T00:58:36;2.00;2.00;2.00
45700;PMS5003;36277;32.852;-116.998;2023-03-19T01:01:06;2.20;2.20;2.00
45700;PMS5003;36277;32.852;-116.998;2023-03-19T01:03:33;1.40;1.40;1.20
45700;PMS5003;36277;32.852;-116.998;2023-03-19T01:06:00;3.00;3.00;2.40
45700;PMS5003;36277;32.852;-116.998;2023-03-19T01:08:27;2.60;2.60;2.60
45700;PMS5003;36277;32.852;-116.998;2023-03-19T01:10:54;3.00;3.00;2.40
45700;PMS5003;36277;32.852;-116.998;2023-03-19T01:13:20;2.40;2.40;1.80
45700;PMS5003;36277;32.852;-116.998;2023-03-19T01:15:46;2.40;2.40;1.60
45700;PMS5003;36277;32.852;-116.998;2023-03-19T01:18:18;2.20;2.20;1.40
45700;PMS5003;36277;32.852;-116.998;2023-03-19T01:20:44;2.00;2.00;2.00
45700;PMS5003;36277;32.852;-116.998;2023-03-19T01:23:10;3.40;3.40;3.00
45700;PMS5003;36277;32.852;-116.998;2023-03-19T01:25:37;2.80;2.80;2.60
45700;PMS5003;36277;32.852;-116.998;2023-03-19T01:28:04;1.80;1.80;1.40
45700;PMS5003;36277;32.852;-116.998;2023-03-19T01:30:31;2.80;2.80;2.20
45700;PMS5003;36277;32.852;-116.998;2023-03-19T01:32:58;2.00;2.00;2.00
45700;PMS5003;36277;32.852;-116.998;2023-03-19T01:35:24;1.80;1.80;1.40
45700;PMS5003;36277;32.852;-116.998;2023-03-19T01:37:51;2.20;2.20;2.20
45700;PMS5003;36277;32.852;-116.998;2023-03-19T01:40:17;2.60;2.60;2.40
45700;PMS5003;36277;32.852;-116.998;2023-03-19T01:43:18;3.00;3.00;2.00
45700;PMS5003;36277;32.852;-116.998;2023-03-19T01:45:47;4.00;4.00;3.00
45700;PMS5003;36277;32.852;-116.998;2023-03-19T01:48:18;4.60;4.60;4.00
45700;PMS5003;36277;32.852;-116.998;2023-03-19T01:50:53;3.00;3.00;2.40
45700;PMS5003;36277;32.852;-116.998;2023-03-19T01:53:22;2.40;2.40;2.20
45700;PMS5003;36277;32.852;-116.998;2023-03-19T01:55:58;3.00;3.00;2.40
45700;PMS5003;36277;32.852;-116.998;2023-03-19T01:58:31;4.00;4.00;3.60
45700;PMS5003;36277;32.852;-116.998;2023-03-19T02:00:58;4.60;4.60;3.00
45700;PMS5003;36277;32.852;-116.998;2023-03-19T02:03:24;3.00;3.00;3.00
45700;PMS5003;36277;32.852;-116.998;2023-03-19T02:05:51;4.80;4.80;3.80
45700;PMS5003;36277;32.852;-116.998;2023-03-19T02:08:20;3.00;3.00;2.40
45700;PMS5003;36277;32.852;-116.998;2023-03-19T02:10:49;3.80;3.80;3.00
45700;PMS5003;36277;32.852;-116.998;2023-03-19T02:13:20;3.20;3.20;3.20
45700;PMS5003;36277;32.852;-116.998;2023-03-19T02:15:48;4.00;4.00;3.20
45700;PMS5003;36277;32.852;-116.998;2023-03-19T02:18:16;5.00;5.00;5.00
45700;PMS5003;36277;32.852;-116.998;2023-03-19T02:20:48;8.60;8.60;8.00
45700;PMS5003;36277;32.852;-116.998;2023-03-19T02:26:05;5.80;5.80;4.80
45700;PMS5003;36277;32.852;-116.998;2023-03-19T02:28:35;8.80;8.80;7.20
45700;PMS5003;36277;32.852;-116.998;2023-03-19T02:31:05;6.00;6.00;5.00
45700;PMS5003;36277;32.852;-116.998;2023-03-19T02:33:31;7.20;7.20;6.80
45700;PMS5003;36277;32.852;-116.998;2023-03-19T02:35:58;7.80;7.80;7.40
45700;PMS5003;36277;32.852;-116.998;2023-03-19T02:38:26;6.00;6.00;6.00
45700;PMS5003;36277;32.852;-116.998;2023-03-19T02:41:02;5.40;5.40;4.80
45700;PMS5003;36277;32.852;-116.998;2023-03-19T02:43:31;5.00;5.00;5.00
45700;PMS5003;36277;32.852;-116.998;2023-03-19T02:45:59;8.00;8.00;7.00
45700;PMS5003;36277;32.852;-116.998;2023-03-19T02:48:27;8.80;8.80;6.60
45700;PMS5003;36277;32.852;-116.998;2023-03-19T02:50:53;12.60;12.40;11.40
45700;PMS5003;36277;32.852;-116.998;2023-03-19T02:53:21;14.40;14.40;10.80
45700;PMS5003;36277;32.852;-116.998;2023-03-19T02:55:47;19.20;19.20;15.00
45700;PMS5003;36277;32.852;-116.998;2023-03-19T02:58:14;14.00;14.00;11.20
45700;PMS5003;36277;32.852;-116.998;2023-03-19T03:00:40;13.80;13.40;10.00
45700;PMS5003;36277;32.852;-116.998;2023-03-19T03:03:07;13.60;13.60;10.20
45700;PMS5003;36277;32.852;-116.998;2023-03-19T03:05:33;10.40;10.40;9.00
45700;PMS5003;36277;32.852;-116.998;2023-03-19T03:08:00;11.60;11.60;9.40
45700;PMS5003;36277;32.852;-116.998;2023-03-19T03:10:28;12.80;12.80;10.00
45700;PMS5003;36277;32.852;-116.998;2023-03-19T03:12:55;11.60;11.60;8.60
45700;PMS5003;36277;32.852;-116.998;2023-03-19T03:15:22;12.60;12.60;9.60
45700;PMS5003;36277;32.852;-116.998;2023-03-19T03:17:48;10.00;10.00;8.20
45700;PMS5003;36277;32.852;-116.998;2023-03-19T03:20:15;3.00;3.00;2.60
45700;PMS5003;36277;32.852;-116.998;2023-03-19T03:22:44;10.00;10.00;9.00
45700;PMS5003;36277;32.852;-116.998;2023-03-19T03:25:11;9.80;9.80;8.80
45700;PMS5003;36277;32.852;-116.998;2023-03-19T03:27:38;10.20;10.20;9.00
45700;PMS5003;36277;32.852;-116.998;2023-03-19T03:30:06;10.20;10.20;8.20
45700;PMS5003;36277;32.852;-116.998;2023-03-19T03:32:35;11.20;11.20;9.40
45700;PMS5003;36277;32.852;-116.998;2023-03-19T03:35:03;11.80;11.40;10.60
45700;PMS5003;36277;32.852;-116.998;2023-03-19T03:37:30;10.00;10.00;9.20
45700;PMS5003;36277;32.852;-116.998;2023-03-19T03:39:56;9.40;9.40;8.60
45700;PMS5003;36277;32.852;-116.998;2023-03-19T03:42:22;11.80;11.80;10.60
45700;PMS5003;36277;32.852;-116.998;2023-03-19T03:44:49;8.00;8.00;7.00
45700;PMS5003;36277;32.852;-116.998;2023-03-19T03:47:16;10.80;10.80;9.60
45700;PMS5003;36277;32.852;-116.998;2023-03-19T03:49:43;11.00;11.00;10.00
45700;PMS5003;36277;32.852;-116.998;2023-03-19T03:52:09;11.00;11.00;9.40
45700;PMS5003;36277;32.852;-116.998;2023-03-19T03:54:36;11.60;11.60;9.20
45700;PMS5003;36277;32.852;-116.998;2023-03-19T03:57:02;14.20;14.20;11.40
45700;PMS5003;36277;32.852;-116.998;2023-03-19T03:59:29;11.80;11.80;10.00
45700;PMS5003;36277;32.852;-116.998;2023-03-19T04:01:55;12.00;12.00;10.00
45700;PMS5003;36277;32.852;-116.998;2023-03-19T04:04:21;11.20;11.20;9.60
45700;PMS5003;36277;32.852;-116.998;2023-03-19T04:06:47;11.20;11.20;10.00
45700;PMS5003;36277;32.852;-116.998;2023-03-19T04:09:14;9.80;9.80;8.20
45700;PMS5003;36277;32.852;-116.998;2023-03-19T04:11:41;10.60;10.60;8.40
45700;PMS5003;36277;32.852;-116.998;2023-03-19T04:14:07;11.00;11.00;9.60
45700;PMS5003;36277;32.852;-116.998;2023-03-19T04:16:34;6.00;6.00;5.80
45700;PMS5003;36277;32.852;-116.998;2023-03-19T04:19:00;9.40;9.40;9.00
45700;PMS5003;36277;32.852;-116.998;2023-03-19T04:21:26;9.80;9.80;8.80
45700;PMS5003;36277;32.852;-116.998;2023-03-19T04:23:54;9.40;9.40;8.20
45700;PMS5003;36277;32.852;-116.998;2023-03-19T04:26:20;8.40;8.40;7.00
45700;PMS5003;36277;32.852;-116.998;2023-03-19T04:28:47;9.00;9.00;8.00
45700;PMS5003;36277;32.852;-116.998;2023-03-19T04:31:13;10.60;10.60;9.00
45700;PMS5003;36277;32.852;-116.998;2023-03-19T04:33:39;10.00;10.00;9.40
45700;PMS5003;36277;32.852;-116.998;2023-03-19T04:36:06;11.00;11.00;8.80
45700;PMS5003;36277;32.852;-116.998;2023-03-19T04:38:32;10.00;10.00;9.20
45700;PMS5003;36277;32.852;-116.998;2023-03-19T04:40:58;11.60;11.60;9.00
45700;PMS5003;36277;32.852;-116.998;2023-03-19T04:43:25;10.00;10.00;9.00
45700;PMS5003;36277;32.852;-116.998;2023-03-19T04:45:52;9.00;9.00;8.00
45700;PMS5003;36277;32.852;-116.998;2023-03-19T04:48:19;10.00;10.00;8.80
45700;PMS5003;36277;32.852;-116.998;2023-03-19T04:50:45;9.80;9.80;8.00
45700;PMS5003;36277;32.852;-116.998;2023-03-19T04:53:16;10.20;10.20;9.00
45700;PMS5003;36277;32.852;-116.998;2023-03-19T04:55:43;8.80;8.80;7.00
45700;PMS5003;36277;32.852;-116.998;2023-03-19T04:58:09;8.40;8.40;6.80
45700;PMS5003;36277;32.852;-116.998;2023-03-19T05:00:36;9.00;9.00;7.00
45700;PMS5003;36277;32.852;-116.998;2023-03-19T05:03:02;10.40;10.40;8.20
45700;PMS5003;36277;32.852;-116.998;2023-03-19T05:05:28;8.00;8.00;7.20
45700;PMS5003;36277;32.852;-116.998;2023-03-19T05:07:55;9.00;9.00;8.00
45700;PMS5003;36277;32.852;-116.998;2023-03-19T05:10:21;6.00;6.00;5.20
45700;PMS5003;36277;32.852;-116.998;2023-03-19T05:12:48;9.00;9.00;7.80
45700;PMS5003;36277;32.852;-116.998;2023-03-19T05:15:15;9.40;9.20;7.40
45700;PMS5003;36277;32.852;-116.998;2023-03-19T05:17:41;9.40;9.40;7.20
45700;PMS5003;36277;32.852;-116.998;2023-03-19T05:20:08;8.00;8.00;7.00
45700;PMS5003;36277;32.852;-116.998;2023-03-19T05:22:37;7.40;7.40;5.40
45700;PMS5003;36277;32.852;-116.998;2023-03-19T05:25:03;8.00;8.00;6.20
45700;PMS5003;36277;32.852;-116.998;2023-03-19T05:27:31;7.60;7.60;7.40
45700;PMS5003;36277;32.852;-116.998;2023-03-19T05:29:57;7.60;7.60;7.00
45700;PMS5003;36277;32.852;-116.998;2023-03-19T05:32:24;8.00;8.00;7.60
45700;PMS5003;36277;32.852;-116.998;2023-03-19T05:34:50;5.20;5.20;5.00
45700;PMS5003;36277;32.852;-116.998;2023-03-19T05:37:16;7.60;7.60;7.00
45700;PMS5003;36277;32.852;-116.998;2023-03-19T05:39:43;7.80;7.80;6.00
45700;PMS5003;36277;32.852;-116.998;2023-03-19T05:42:09;7.00;7.00;7.00
45700;PMS5003;36277;32.852;-116.998;2023-03-19T05:44:36;7.80;7.80;7.00
45700;PMS5003;36277;32.852;-116.998;2023-03-19T05:47:02;7.00;7.00;6.40
45700;PMS5003;36277;32.852;-116.998;2023-03-19T05:49:29;8.60;8.60;7.80
45700;PMS5003;36277;32.852;-116.998;2023-03-19T05:51:55;5.00;5.00;5.00
45700;PMS5003;36277;32.852;-116.998;2023-03-19T05:54:22;7.20;7.00;5.40
45700;PMS5003;36277;32.852;-116.998;2023-03-19T05:56:48;7.00;7.00;6.00
45700;PMS5003;36277;32.852;-116.998;2023-03-19T05:59:15;7.40;7.40;7.00
45700;PMS5003;36277;32.852;-116.998;2023-03-19T06:01:42;7.60;7.60;6.40
45700;PMS5003;36277;32.852;-116.998;2023-03-19T06:04:08;7.00;7.00;7.00
45700;PMS5003;36277;32.852;-116.998;2023-03-19T06:06:34;6.80;6.80;5.80
45700;PMS5003;36277;32.852;-116.998;2023-03-19T06:09:01;7.20;7.20;6.00
45700;PMS5003;36277;32.852;-116.998;2023-03-19T06:11:27;6.40;6.40;5.00
45700;PMS5003;36277;32.852;-116.998;2023-03-19T06:13:54;7.00;7.00;6.20
45700;PMS5003;36277;32.852;-116.998;2023-03-19T06:16:20;4.40;4.40;4.00
45700;PMS5003;36277;32.852;-116.998;2023-03-19T06:18:46;6.80;6.80;5.80
45700;PMS5003;36277;32.852;-116.998;2023-03-19T06:21:12;8.00;8.00;6.20
45700;PMS5003;36277;32.852;-116.998;2023-03-19T06:23:39;6.80;6.80;5.80
45700;PMS5003;36277;32.852;-116.998;2023-03-19T06:26:05;6.00;6.00;5.20
45700;PMS5003;36277;32.852;-116.998;2023-03-19T06:28:32;6.20;6.20;5.40
45700;PMS5003;36277;32.852;-116.998;2023-03-19T06:30:58;6.80;6.80;6.20
45700;PMS5003;36277;32.852;-116.998;2023-03-19T06:33:24;6.40;6.40;5.80
45700;PMS5003;36277;32.852;-116.998;2023-03-19T06:35:56;3.00;3.00;3.00
45700;PMS5003;36277;32.852;-116.998;2023-03-19T06:38:23;7.40;7.40;6.20
45700;PMS5003;36277;32.852;-116.998;2023-03-19T06:40:49;5.40;5.40;4.60
45700;PMS5003;36277;32.852;-116.998;2023-03-19T06:43:16;6.20;6.20;6.00
45700;PMS5003;36277;32.852;-116.998;2023-03-19T06:45:42;4.40;4.40;4.20
45700;PMS5003;36277;32.852;-116.998;2023-03-19T06:48:08;6.80;6.80;5.20
45700;PMS5003;36277;32.852;-116.998;2023-03-19T06:50:34;7.00;7.00;5.00
45700;PMS5003;36277;32.852;-116.998;2023-03-19T06:53:01;7.00;7.00;6.00
45700;PMS5003;36277;32.852;-116.998;2023-03-19T06:55:27;7.40;7.40;6.60
45700;PMS5003;36277;32.852;-116.998;2023-03-19T06:57:55;5.20;5.20;4.60
45700;PMS5003;36277;32.852;-116.998;2023-03-19T07:00:21;7.00;7.00;6.00
45700;PMS5003;36277;32.852;-116.998;2023-03-19T07:02:48;6.00;6.00;5.00
45700;PMS5003;36277;32.852;-116.998;2023-03-19T07:05:15;6.00;6.00;5.00
45700;PMS5003;36277;32.852;-116.998;2023-03-19T07:07:41;5.20;5.20;4.60
45700;PMS5003;36277;32.852;-116.998;2023-03-19T07:10:08;6.60;6.60;6.00
45700;PMS5003;36277;32.852;-116.998;2023-03-19T07:12:34;6.60;6.60;5.20
45700;PMS5003;36277;32.852;-116.998;2023-03-19T07:15:01;5.80;5.80;4.40
45700;PMS5003;36277;32.852;-116.998;2023-03-19T07:17:28;6.00;6.00;5.00
45700;PMS5003;36277;32.852;-116.998;2023-03-19T07:19:55;5.60;5.60;5.40
45700;PMS5003;36277;32.852;-116.998;2023-03-19T07:22:21;5.20;5.20;4.20
45700;PMS5003;36277;32.852;-116.998;2023-03-19T07:24:48;5.20;5.20;4.00
45700;PMS5003;36277;32.852;-116.998;2023-03-19T07:27:15;6.00;6.00;5.00
45700;PMS5003;36277;32.852;-116.998;2023-03-19T07:29:42;6.00;6.00;5.00
45700;PMS5003;36277;32.852;-116.998;2023-03-19T07:32:08;5.00;5.00;4.80
45700;PMS5003;36277;32.852;-116.998;2023-03-19T07:34:35;6.00;6.00;5.00
45700;PMS5003;36277;32.852;-116.998;2023-03-19T07:37:01;5.00;5.00;4.80
45700;PMS5003;36277;32.852;-116.998;2023-03-19T07:39:28;5.40;5.40;4.60
45700;PMS5003;36277;32.852;-116.998;2023-03-19T07:41:54;6.00;6.00;5.00
45700;PMS5003;36277;32.852;-116.998;2023-03-19T07:44:20;5.20;5.20;4.20
45700;PMS5003;36277;32.852;-116.998;2023-03-19T07:46:46;6.00;6.00;5.20
45700;PMS5003;36277;32.852;-116.998;2023-03-19T07:49:13;5.60;5.60;3.80
45700;PMS5003;36277;32.852;-116.998;2023-03-19T07:51:39;4.20;4.20;3.80
45700;PMS5003;36277;32.852;-116.998;2023-03-19T07:54:05;4.00;4.00;3.80
45700;PMS5003;36277;32.852;-116.998;2023-03-19T07:56:32;4.20;4.20;3.80
45700;PMS5003;36277;32.852;-116.998;2023-03-19T07:58:58;4.40;4.40;4.00
45700;PMS5003;36277;32.852;-116.998;2023-03-19T08:01:25;6.00;6.00;5.80
45700;PMS5003;36277;32.852;-116.998;2023-03-19T08:03:51;5.00;5.00;4.40
45700;PMS5003;36277;32.852;-116.998;2023-03-19T08:06:17;5.00;5.00;5.00
45700;PMS5003;36277;32.852;-116.998;2023-03-19T08:08:43;5.40;5.40;4.80
45700;PMS5003;36277;32.852;-116.998;2023-03-19T08:11:10;4.00;4.00;4.00
45700;PMS5003;36277;32.852;-116.998;2023-03-19T08:13:36;5.40;5.40;4.60
45700;PMS5003;36277;32.852;-116.998;2023-03-19T08:16:03;5.00;5.00;4.00
45700;PMS5003;36277;32.852;-116.998;2023-03-19T08:18:29;6.00;6.00;5.20
45700;PMS5003;36277;32.852;-116.998;2023-03-19T08:20:55;6.00;6.00;5.00
45700;PMS5003;36277;32.852;-116.998;2023-03-19T08:23:22;6.00;6.00;5.00
45700;PMS5003;36277;32.852;-116.998;2023-03-19T08:25:48;6.00;6.00;5.00
45700;PMS5003;36277;32.852;-116.998;2023-03-19T08:28:16;5.20;5.20;4.80
45700;PMS5003;36277;32.852;-116.998;2023-03-19T08:30:42;4.00;4.00;3.40
45700;PMS5003;36277;32.852;-116.998;2023-03-19T08:33:08;5.20;5.20;4.60
45700;PMS5003;36277;32.852;-116.998;2023-03-19T08:35:35;6.40;6.40;5.40
45700;PMS5003;36277;32.852;-116.998;2023-03-19T08:38:01;4.00;4.00;3.80
45700;PMS5003;36277;32.852;-116.998;2023-03-19T08:40:28;5.60;5.60;4.80
45700;PMS5003;36277;32.852;-116.998;2023-03-19T08:42:54;5.00;5.00;4.60
45700;PMS5003;36277;32.852;-116.998;2023-03-19T08:45:21;4.00;4.00;4.00
45700;PMS5003;36277;32.852;-116.998;2023-03-19T08:47:47;4.60;4.60;4.00
45700;PMS5003;36277;32.852;-116.998;2023-03-19T08:50:14;5.20;5.20;5.00
45700;PMS5003;36277;32.852;-116.998;2023-03-19T08:52:41;5.60;5.60;5.00
45700;PMS5003;36277;32.852;-116.998;2023-03-19T08:55:07;5.20;5.20;4.40
45700;PMS5003;36277;32.852;-116.998;2023-03-19T08:57:34;5.00;5.00;4.00
45700;PMS5003;36277;32.852;-116.998;2023-03-19T09:00:03;5.20;5.20;4.20
45700;PMS5003;36277;32.852;-116.998;2023-03-19T09:02:30;5.20;5.20;4.20
45700;PMS5003;36277;32.852;-116.998;2023-03-19T09:04:57;4.40;4.40;4.00
45700;PMS5003;36277;32.852;-116.998;2023-03-19T09:07:22;3.00;3.00;2.50
45700;PMS5003;36277;32.852;-116.998;2023-03-19T09:09:49;4.00;4.00;4.00
45700;PMS5003;36277;32.852;-116.998;2023-03-19T09:12:15;4.40;4.40;4.00
45700;PMS5003;36277;32.852;-116.998;2023-03-19T09:14:43;5.80;5.80;4.00
45700;PMS5003;36277;32.852;-116.998;2023-03-19T09:17:09;5.00;5.00;4.00
45700;PMS5003;36277;32.852;-116.998;2023-03-19T09:19:37;5.00;5.00;4.00
45700;PMS5003;36277;32.852;-116.998;2023-03-19T09:22:04;5.40;5.40;4.80
45700;PMS5003;36277;32.852;-116.998;2023-03-19T09:24:30;4.00;4.00;3.00
45700;PMS5003;36277;32.852;-116.998;2023-03-19T09:26:56;5.20;5.20;4.00
45700;PMS5003;36277;32.852;-116.998;2023-03-19T09:29:22;5.00;4.80;4.00
45700;PMS5003;36277;32.852;-116.998;2023-03-19T09:31:49;5.80;5.80;4.00
45700;PMS5003;36277;32.852;-116.998;2023-03-19T09:34:15;5.00;5.00;4.00
45700;PMS5003;36277;32.852;-116.998;2023-03-19T09:36:41;3.00;3.00;3.00
45700;PMS5003;36277;32.852;-116.998;2023-03-19T09:39:07;4.00;4.00;3.40
45700;PMS5003;36277;32.852;-116.998;2023-03-19T09:49:38;5.00;5.00;4.20
45700;PMS5003;36277;32.852;-116.998;2023-03-19T09:54:45;4.20;4.20;4.00
45700;PMS5003;36277;32.852;-116.998;2023-03-19T09:57:16;6.00;6.00;5.00
45700;PMS5003;36277;32.852;-116.998;2023-03-19T09:59:44;5.00;5.00;4.00
45700;PMS5003;36277;32.852;-116.998;2023-03-19T10:13:34;3.00;3.00;3.00
45700;PMS5003;36277;32.852;-116.998;2023-03-19T10:16:04;3.60;3.60;3.00
45700;PMS5003;36277;32.852;-116.998;2023-03-19T10:18:38;4.60;4.60;4.00
45700;PMS5003;36277;32.852;-116.998;2023-03-19T10:21:29;4.00;4.00;4.00
45700;PMS5003;36277;32.852;-116.998;2023-03-19T10:24:10;5.00;5.00;4.80
45700;PMS5003;36277;32.852;-116.998;2023-03-19T10:26:47;4.00;4.00;4.00
45700;PMS5003;36277;32.852;-116.998;2023-03-19T10:29:21;4.20;4.20;3.00
45700;PMS5003;36277;32.852;-116.998;2023-03-19T10:31:55;4.00;4.00;4.00
45700;PMS5003;36277;32.852;-116.998;2023-03-19T10:34:31;5.00;5.00;4.00
45700;PMS5003;36277;32.852;-116.998;2023-03-19T10:39:38;2.80;2.80;2.40
45700;PMS5003;36277;32.852;-116.998;2023-03-19T10:48:05;4.00;4.00;4.00
45700;PMS5003;36277;32.852;-116.998;2023-03-19T10:50:43;4.80;4.80;4.00
45700;PMS5003;36277;32.852;-116.998;2023-03-19T10:56:01;3.80;3.80;3.20
45700;PMS5003;36277;32.852;-116.998;2023-03-19T10:58:30;4.00;4.00;3.20
45700;PMS5003;36277;32.852;-116.998;2023-03-19T11:01:08;3.60;3.60;3.20
45700;PMS5003;36277;32.852;-116.998;2023-03-19T11:03:37;3.40;3.40;3.00
45700;PMS5003;36277;32.852;-116.998;2023-03-19T11:06:27;5.00;5.00;4.00
45700;PMS5003;36277;32.852;-116.998;2023-03-19T11:11:42;4.00;4.00;3.60
45700;PMS5003;36277;32.852;-116.998;2023-03-19T11:17:20;3.80;3.80;3.00
45700;PMS5003;36277;32.852;-116.998;2023-03-19T11:22:51;5.00;5.00;4.20
45700;PMS5003;36277;32.852;-116.998;2023-03-19T11:25:27;4.40;4.40;3.60
45700;PMS5003;36277;32.852;-116.998;2023-03-19T11:28:04;5.00;5.00;4.00
45700;PMS5003;36277;32.852;-116.998;2023-03-19T11:36:33;4.20;4.20;4.00
45700;PMS5003;36277;32.852;-116.998;2023-03-19T11:39:22;3.40;3.40;2.80
45700;PMS5003;36277;32.852;-116.998;2023-03-19T11:42:20;4.80;4.80;3.80
45700;PMS5003;36277;32.852;-116.998;2023-03-19T11:47:42;3.80;3.80;3.40
45700;PMS5003;36277;32.852;-116.998;2023-03-19T11:50:29;2.80;2.80;2.60
45700;PMS5003;36277;32.852;-116.998;2023-03-19T11:56:01;3.00;3.00;3.00
45700;PMS5003;36277;32.852;-116.998;2023-03-19T12:01:52;1.00;1.00;1.00
45700;PMS5003;36277;32.852;-116.998;2023-03-19T12:09:55;4.00;4.00;3.00
45700;PMS5003;36277;32.852;-116.998;2023-03-19T12:15:40;3.40;3.40;3.00
45700;PMS5003;36277;32.852;-116.998;2023-03-19T12:20:55;4.00;3.80;3.00
45700;PMS5003;36277;32.852;-116.998;2023-03-19T12:31:52;3.20;3.20;3.00
45700;PMS5003;36277;32.852;-116.998;2023-03-19T12:34:36;1.20;1.20;1.20
45700;PMS5003;36277;32.852;-116.998;2023-03-19T12:37:30;4.00;4.00;3.60
45700;PMS5003;36277;32.852;-116.998;2023-03-19T12:40:12;3.00;3.00;2.80
45700;PMS5003;36277;32.852;-116.998;2023-03-19T12:42:44;2.40;2.40;2.00
45700;PMS5003;36277;32.852;-116.998;2023-03-19T12:45:15;3.80;3.80;3.40
45700;PMS5003;36277;32.852;-116.998;2023-03-19T12:47:53;3.20;3.20;3.00
45700;PMS5003;36277;32.852;-116.998;2023-03-19T12:50:25;4.00;4.00;3.40
45700;PMS5003;36277;32.852;-116.998;2023-03-19T12:52:55;5.00;5.00;4.00
45700;PMS5003;36277;32.852;-116.998;2023-03-19T12:55:43;3.00;3.00;3.00
45700;PMS5003;36277;32.852;-116.998;2023-03-19T12:58:20;4.00;4.00;3.00
45700;PMS5003;36277;32.852;-116.998;2023-03-19T13:01:05;3.40;3.40;3.00
45700;PMS5003;36277;32.852;-116.998;2023-03-19T13:03:55;4.00;4.00;3.00
45700;PMS5003;36277;32.852;-116.998;2023-03-19T13:09:04;4.00;4.00;3.00
45700;PMS5003;36277;32.852;-116.998;2023-03-19T13:11:48;2.40;2.40;2.00
45700;PMS5003;36277;32.852;-116.998;2023-03-19T13:14:35;3.20;3.20;3.00
45700;PMS5003;36277;32.852;-116.998;2023-03-19T13:19:59;3.60;3.60;3.40
45700;PMS5003;36277;32.852;-116.998;2023-03-19T13:22:41;3.40;3.40;2.80
45700;PMS5003;36277;32.852;-116.998;2023-03-19T13:25:16;4.00;4.00;3.00
45700;PMS5003;36277;32.852;-116.998;2023-03-19T13:27:55;3.00;3.00;2.80
45700;PMS5003;36277;32.852;-116.998;2023-03-19T13:30:22;3.00;3.00;2.60
45700;PMS5003;36277;32.852;-116.998;2023-03-19T13:33:03;3.00;3.00;3.00
45700;PMS5003;36277;32.852;-116.998;2023-03-19T13:40:43;3.40;3.40;3.00
45700;PMS5003;36277;32.852;-116.998;2023-03-19T13:48:37;3.00;3.00;2.20
45700;PMS5003;36277;32.852;-116.998;2023-03-19T13:59:35;3.60;3.60;3.00
45700;PMS5003;36277;32.852;-116.998;2023-03-19T14:02:50;2.00;2.00;2.00
45700;PMS5003;36277;32.852;-116.998;2023-03-19T14:07:23;2.60;2.60;2.40
45700;PMS5003;36277;32.852;-116.998;2023-03-19T14:20:34;3.00;3.00;3.00
45700;PMS5003;36277;32.852;-116.998;2023-03-19T14:23:37;2.00;2.00;2.00
45700;PMS5003;36277;32.852;-116.998;2023-03-19T14:26:19;3.00;3.00;2.60
45700;PMS5003;36277;32.852;-116.998;2023-03-19T14:28:56;2.40;2.40;2.00
45700;PMS5003;36277;32.852;-116.998;2023-03-19T14:37:20;3.00;3.00;2.40
45700;PMS5003;36277;32.852;-116.998;2023-03-19T14:43:01;2.80;2.80;2.00
45700;PMS5003;36277;32.852;-116.998;2023-03-19T14:53:57;2.80;2.80;2.80
45700;PMS5003;36277;32.852;-116.998;2023-03-19T14:56:44;2.00;2.00;1.00
45700;PMS5003;36277;32.852;-116.998;2023-03-19T14:59:12;3.00;3.00;3.00
45700;PMS5003;36277;32.852;-116.998;2023-03-19T15:01:41;2.00;2.00;2.00
45700;PMS5003;36277;32.852;-116.998;2023-03-19T15:04:13;3.00;3.00;2.00
45700;PMS5003;36277;32.852;-116.998;2023-03-19T15:06:43;2.00;2.00;2.00
45700;PMS5003;36277;32.852;-116.998;2023-03-19T15:09:20;3.00;3.00;3.00
45700;PMS5003;36277;32.852;-116.998;2023-03-19T15:12:19;2.00;2.00;2.00
45700;PMS5003;36277;32.852;-116.998;2023-03-19T15:17:39;1.80;1.80;1.80
45700;PMS5003;36277;32.852;-116.998;2023-03-19T15:20:39;2.60;2.60;2.60
45700;PMS5003;36277;32.852;-116.998;2023-03-19T15:23:00;2.40;2.40;2.00
45700;PMS5003;36277;32.852;-116.998;2023-03-19T15:25:30;2.20;2.20;2.00
45700;PMS5003;36277;32.852;-116.998;2023-03-19T15:28:10;2.00;2.00;2.00
45700;PMS5003;36277;32.852;-116.998;2023-03-19T15:30:38;2.60;2.60;2.40
45700;PMS5003;36277;32.852;-116.998;2023-03-19T15:33:20;2.40;2.40;2.00
45700;PMS5003;36277;32.852;-116.998;2023-03-19T15:35:53;2.00;2.00;2.00
45700;PMS5003;36277;32.852;-116.998;2023-03-19T15:38:44;3.00;3.00;2.80
45700;PMS5003;36277;32.852;-116.998;2023-03-19T15:41:21;2.40;2.40;2.00
45700;PMS5003;36277;32.852;-116.998;2023-03-19T15:43:50;2.00;2.00;1.40
45700;PMS5003;36277;32.852;-116.998;2023-03-19T15:46:18;2.00;2.00;2.00
45700;PMS5003;36277;32.852;-116.998;2023-03-19T15:48:57;2.00;2.00;2.00
45700;PMS5003;36277;32.852;-116.998;2023-03-19T15:51:29;2.40;2.40;2.00
45700;PMS5003;36277;32.852;-116.998;2023-03-19T15:53:58;2.00;2.00;2.00
45700;PMS5003;36277;32.852;-116.998;2023-03-19T15:56:26;2.00;2.00;2.00
45700;PMS5003;36277;32.852;-116.998;2023-03-19T15:58:54;2.00;2.00;2.00
45700;PMS5003;36277;32.852;-116.998;2023-03-19T16:01:23;2.00;2.00;2.00
45700;PMS5003;36277;32.852;-116.998;2023-03-19T16:03:54;3.00;3.00;2.00
45700;PMS5003;36277;32.852;-116.998;2023-03-19T16:06:25;2.00;2.00;2.00
45700;PMS5003;36277;32.852;-116.998;2023-03-19T16:08:56;2.00;2.00;2.00
45700;PMS5003;36277;32.852;-116.998;2023-03-19T16:11:40;2.80;2.80;2.40
45700;PMS5003;36277;32.852;-116.998;2023-03-19T16:17:00;2.00;2.00;2.00